Météo Nord-Pas-de-Calais   La météo au plus près de chez vous

Station météorologique

Observations météo à Auxerre-Perrigny (89295)

89295001 152 m Dernier relevé à 17:42
26.2°C
Humidité 37 % Vent 10.1 km/h 1023.9 hPa

Journée consultée

Samedi 5 Septembre 2026

Synthèse de la journée

Périodes de référence en UTC

Température maximale

26.6°C

à 17:00

06h 06h

Température minimale

17°C

à 10:00

18h 18h

Rafale maximale

23 km/h

à 17:00

00h 00h

Précipitations

0.2 mm

Cumul quotidien

06h 06h

Ensoleillement

5h 49 mins

Durée quotidienne

00h 00h

Graphiques de la journée

Heure locale Réduire

Données détaillées

Relevés météo

Pas de 6 minutes Afficher les relevés infra-horaires
Relevés météo détaillés à Auxerre-Perrigny pour le Samedi 5 Septembre 2026
Heure Température °C Point de rosée °C Humidité % Vent moyen (raf.), km/h Précipitations mm Température à 10 cm °C Température à 20 cm °C Température à 50 cm °C Température à 100 cm °C Visibilité m État du sol   Hauteur neige cm Ensoleillement min Rayonnement global W/m² Pression hPa Nébulosité Octas
17:42 26.2 °C 9.5 °C 35 % 6 km/h (13 km/h) 0 mm0 mm 27.6 °C 26.7 °C 23.4 °C 21.7 °C 20000 m 0   0 cm 6 min 147.9 W/m² 1023.8 hPa
17:36 26.3 °C 10 °C 36 % 8 km/h (13 km/h) 0 mm0 mm 27.6 °C 26.6 °C 23.4 °C 21.7 °C 20000 m 0   0 cm 6 min 154.2 W/m² 1023.8 hPa
17:30 26.3 °C 10 °C 36 % 8 km/h (13 km/h) 0 mm0 mm 27.5 °C 26.6 °C 23.4 °C 21.7 °C 20000 m 0   0 cm 6 min 159.9 W/m² 1023.8 hPa
17:24 26.3 °C 10 °C 36 % 6 km/h (12 km/h) 0 mm0 mm 27.5 °C 26.6 °C 23.4 °C 21.7 °C 20000 m 0   0 cm 6 min 165.1 W/m² 1023.8 hPa
17:18 26 °C 9.8 °C 36 % 8 km/h (15 km/h) 0 mm0 mm 27.5 °C 26.5 °C 23.4 °C 21.7 °C 20000 m 0   0 cm 6 min 170.3 W/m² 1023.8 hPa
17:12 25.9 °C 10.1 °C 37 % 9 km/h (17 km/h) 0 mm0 mm 27.3 °C 26.4 °C 23.4 °C 21.7 °C 20000 m 0   0 cm 6 min 173.5 W/m² 1023.8 hPa
17:06 25.8 °C 10.4 °C 38 % 11 km/h (23 km/h) 0 mm0 mm 27.3 °C 26.4 °C 23.5 °C 21.7 °C 20000 m 0   0 cm 6 min 180.8 W/m² 1023.8 hPa
17:00 26.1 °C 10.3 °C 37 % 10 km/h (23 km/h) 0 mm0 mm 27.3 °C 26.3 °C 23.4 °C 21.7 °C 20000 m 0   0 cm 6 min 183.9 W/m² 1023.8 hPa
16:54 26.4 °C 10.5 °C 37 % 9 km/h (18 km/h) 0 mm0 mm 27.2 °C 26.2 °C 23.4 °C 21.7 °C 20000 m 0   0 cm 6 min 188.1 W/m² 1023.8 hPa
16:48 26.3 °C 10 °C 36 % 7 km/h (18 km/h) 0 mm0 mm 27.1 °C 26.1 °C 23.4 °C 21.7 °C 20000 m 0   0 cm 6 min 196.6 W/m² 1023.8 hPa
16:42 25.8 °C 10 °C 37 % 10 km/h (18 km/h) 0 mm0 mm 27 °C 26.1 °C 23.4 °C 21.7 °C 20000 m 0   0 cm 6 min 201.7 W/m² 1023.9 hPa
16:36 26.2 °C 10.8 °C 38 % 11 km/h (18 km/h) 0 mm0 mm 26.9 °C 26 °C 23.4 °C 21.7 °C 20000 m 0   0 cm 6 min 203.9 W/m² 1024 hPa
16:30 26.3 °C 10.8 °C 38 % 7 km/h (16 km/h) 0 mm0 mm 26.8 °C 25.9 °C 23.4 °C 21.7 °C 20000 m 0   0 cm 6 min 204.5 W/m² 1024 hPa
16:24 26.1 °C 9.9 °C 36 % 6 km/h (10 km/h) 0 mm0 mm 26.7 °C 25.8 °C 23.4 °C 21.7 °C 20000 m 0   0 cm 6 min 213.9 W/m² 1024 hPa
16:18 26.1 °C 10.7 °C 38 % 5 km/h (13 km/h) 0 mm0 mm 26.6 °C 25.8 °C 23.4 °C 21.7 °C 20000 m 0   0 cm 6 min 220.5 W/m² 1024 hPa
16:12 26.2 °C 10.4 °C 37 % 6 km/h (14 km/h) 0 mm0 mm 26.6 °C 25.7 °C 23.4 °C 21.7 °C 20000 m 0   0 cm 6 min 224.4 W/m² 1024 hPa
16:06 26.1 °C 10.7 °C 38 % 6 km/h (14 km/h) 0 mm0 mm 26.4 °C 25.6 °C 23.4 °C 21.7 °C 20000 m 0   0 cm 6 min 226.7 W/m² 1024 hPa
16:00 26.3 °C 10.8 °C 38 % 4 km/h (10 km/h) 0 mm0 mm 26.4 °C 25.5 °C 23.4 °C 21.7 °C 20000 m 0   0 cm 6 min 231.5 W/m² 1024.1 hPa
15:54 25.8 °C 11.2 °C 40 % 5 km/h (13 km/h) 0 mm0 mm 26.3 °C 25.5 °C 23.4 °C 21.7 °C 20000 m 0   0 cm 6 min 235.1 W/m² 1024.2 hPa
15:48 25.4 °C 10.8 °C 40 % 6 km/h (13 km/h) 0 mm0 mm 26.2 °C 25.4 °C 23.4 °C 21.7 °C 20000 m 0   0 cm 6 min 237.2 W/m² 1024.2 hPa
15:42 25.5 °C 10.9 °C 40 % 6 km/h (15 km/h) 0 mm0 mm 26.1 °C 25.3 °C 23.4 °C 21.7 °C 20000 m 0   0 cm 6 min 239.6 W/m² 1024.2 hPa
15:36 25.5 °C 10.9 °C 40 % 7 km/h (15 km/h) 0 mm0 mm 26 °C 25.2 °C 23.4 °C 21.7 °C 20000 m 0   0 cm 6 min 242.5 W/m² 1024.3 hPa
15:30 25.7 °C 10.7 °C 39 % 5 km/h (10 km/h) 0 mm0 mm 25.9 °C 25.2 °C 23.4 °C 21.7 °C 20000 m 0   0 cm 6 min 247 W/m² 1024.4 hPa
15:24 25.5 °C 10.1 °C 38 % 8 km/h (18 km/h) 0 mm0 mm 25.8 °C 25.1 °C 23.4 °C 21.6 °C 20000 m 0   0 cm 6 min 250.8 W/m² 1024.5 hPa
15:18 25.7 °C 11.1 °C 40 % 7 km/h (18 km/h) 0 mm0 mm 25.7 °C 25 °C 23.5 °C 21.7 °C 20000 m 0   0 cm 6 min 248.6 W/m² 1024.5 hPa
15:12 25.4 °C 11.6 °C 42 % 4 km/h (13 km/h) 0 mm0 mm 25.6 °C 24.9 °C 23.4 °C 21.7 °C 20000 m 0   0 cm 6 min 248 W/m² 1024.6 hPa
15:06 24.9 °C 11.5 °C 43 % 4 km/h (12 km/h) 0 mm0 mm 25.5 °C 24.9 °C 23.5 °C 21.7 °C 20000 m 0   0 cm 6 min 252.7 W/m² 1024.6 hPa
15:00 24.7 °C 11.3 °C 43 % 6 km/h (13 km/h) 0 mm0 mm 25.4 °C 24.9 °C 23.5 °C 21.7 °C 20000 m 0   0 cm 6 min 241.5 W/m² 1024.6 hPa
14:54 24.9 °C 11.1 °C 42 % 6 km/h (13 km/h) 0 mm0 mm 25.3 °C 24.8 °C 23.4 °C 21.7 °C 20000 m 0   0 cm 6 min 246.7 W/m² 1024.7 hPa
14:48 24.4 °C 10.3 °C 41 % 8 km/h (17 km/h) 0 mm0 mm 25.2 °C 24.7 °C 23.5 °C 21.7 °C 20000 m 0   0 cm 6 min 248.6 W/m² 1024.6 hPa
14:42 24.8 °C 11 °C 42 % 6 km/h (17 km/h) 0 mm0 mm 25.2 °C 24.7 °C 23.5 °C 21.7 °C 20000 m 0   0 cm 6 min 269.5 W/m² 1024.6 hPa
14:36 24.7 °C 9.8 °C 39 % 5 km/h (11 km/h) 0 mm0 mm 25.1 °C 24.6 °C 23.5 °C 21.7 °C 20000 m 0   0 cm 6 min 265.4 W/m² 1024.6 hPa
14:30 24.4 °C 11 °C 43 % 6 km/h (13 km/h) 0 mm0 mm 25 °C 24.6 °C 23.5 °C 21.7 °C 20000 m 0   0 cm 6 min 267 W/m² 1024.6 hPa
14:24 24.1 °C 11.1 °C 44 % 8 km/h (14 km/h) 0 mm0 mm 25 °C 24.5 °C 23.5 °C 21.7 °C 20000 m 0   0 cm 6 min 264.3 W/m² 1024.7 hPa
14:18 24.1 °C 11.4 °C 45 % 9 km/h (14 km/h) 0 mm0 mm 24.9 °C 24.4 °C 23.5 °C 21.7 °C 20000 m 0   0 cm 6 min 261.5 W/m² 1024.7 hPa
14:12 24.1 °C 10.4 °C 42 % 7 km/h (13 km/h) 0 mm0 mm 24.9 °C 24.4 °C 23.5 °C 21.7 °C 20000 m 0   0 cm 6 min 263.1 W/m² 1024.7 hPa
14:06 24 °C 11.3 °C 45 % 6 km/h (12 km/h) 0 mm0 mm 24.8 °C 24.3 °C 23.5 °C 21.7 °C 20000 m 0   0 cm 6 min 263.1 W/m² 1024.7 hPa
14:00 24.2 °C 11.5 °C 45 % 8 km/h (15 km/h) 0 mm0 mm 24.7 °C 24.3 °C 23.5 °C 21.7 °C 20000 m 0   0 cm 6 min 270.6 W/m² 1024.7 hPa
13:54 24.1 °C 11.4 °C 45 % 7 km/h (15 km/h) 0 mm0 mm 24.7 °C 24.2 °C 23.5 °C 21.7 °C 20000 m 0   0 cm 6 min 274.1 W/m² 1024.8 hPa
13:48 23.5 °C 11.9 °C 48 % 5 km/h (12 km/h) 0 mm0 mm 24.6 °C 24.2 °C 23.5 °C 21.7 °C 20000 m 0   0 cm 6 min 275.2 W/m² 1024.9 hPa
13:42 23.3 °C 12.6 °C 51 % 5 km/h (12 km/h) 0 mm0 mm 24.5 °C 24.1 °C 23.5 °C 21.7 °C 20000 m 0   0 cm 6 min 278.5 W/m² 1024.9 hPa
13:36 23.1 °C 12.4 °C 51 % 5 km/h (12 km/h) 0 mm0 mm 24.4 °C 24 °C 23.5 °C 21.7 °C 20000 m 0   0 cm 5 min 240.3 W/m² 1025 hPa
13:30 23.2 °C 12.5 °C 51 % 5 km/h (10 km/h) 0 mm0 mm 24.3 °C 24 °C 23.5 °C 21.7 °C 20000 m 0   0 cm 6 min 283.9 W/m² 1024.9 hPa
13:24 23 °C 13.7 °C 56 % 8 km/h (13 km/h) 0 mm0 mm 24.2 °C 23.9 °C 23.6 °C 21.7 °C 20000 m 0   0 cm 6 min 287.5 W/m² 1025 hPa
13:18 22.8 °C 14.1 °C 58 % 7 km/h (13 km/h) 0 mm0 mm 24.2 °C 23.9 °C 23.5 °C 21.7 °C 20000 m 0   0 cm 2 min 186.2 W/m² 1025 hPa
13:12 23.2 °C 13.7 °C 55 % 5 km/h (11 km/h) 0 mm0 mm 24.1 °C 23.8 °C 23.5 °C 21.6 °C 20000 m 0   0 cm 6 min 279.5 W/m² 1024.9 hPa
13:06 23.2 °C 13.9 °C 56 % 7 km/h (14 km/h) 0 mm0 mm 24 °C 23.7 °C 23.5 °C 21.6 °C 20000 m 0   0 cm 6 min 294.7 W/m² 1024.9 hPa
13:00 23 °C 14 °C 57 % 9 km/h (16 km/h) 0 mm0 mm 23.9 °C 23.7 °C 23.5 °C 21.7 °C 20000 m 0   0 cm 6 min 287.1 W/m² 1025 hPa
12:54 23.2 °C 13.9 °C 56 % 5 km/h (16 km/h) 0 mm0 mm 23.8 °C 23.6 °C 23.6 °C 21.7 °C 20000 m 0   0 cm 6 min 293.1 W/m² 1025 hPa
12:48 22.9 °C 14.2 °C 58 % 4 km/h (10 km/h) 0 mm0 mm 23.8 °C 23.6 °C 23.5 °C 21.7 °C 20000 m 0   0 cm 6 min 282.3 W/m² 1025 hPa
12:42 22.2 °C 14.3 °C 61 % 6 km/h (10 km/h) 0 mm0 mm 23.7 °C 23.6 °C 23.5 °C 21.6 °C 20000 m 0   0 cm 6 min 278.7 W/m² 1025 hPa
12:36 21.5 °C 13.9 °C 62 % 6 km/h (9 km/h) 0 mm0 mm 23.6 °C 23.5 °C 23.6 °C 21.7 °C 20000 m 0   0 cm 6 min 267.7 W/m² 1025.1 hPa
12:30 21.3 °C 14.7 °C 66 % 8 km/h (14 km/h) 0 mm0 mm 23.6 °C 23.5 °C 23.6 °C 21.7 °C 20000 m 0   0 cm 6 min 254.3 W/m² 1025.1 hPa
12:24 21.1 °C 15.6 °C 71 % 10 km/h (15 km/h) 0 mm0 mm 23.5 °C 23.5 °C 23.6 °C 21.7 °C 20000 m 0   0 cm 2 min 152.3 W/m² 1025.1 hPa
12:18 21.2 °C 15.1 °C 68 % 6 km/h (15 km/h) 0 mm0 mm 23.4 °C 23.4 °C 23.6 °C 21.7 °C 20000 m 0   0 cm 1 min 109.4 W/m² 1025 hPa
12:12 21.2 °C 14.8 °C 67 % 7 km/h (15 km/h) 0 mm0 mm 23.4 °C 23.4 °C 23.5 °C 21.6 °C 20000 m 0   0 cm 1 min 140 W/m² 1025 hPa
12:06 21.4 °C 15.2 °C 68 % 6 km/h (15 km/h) 0 mm0 mm 23.3 °C 23.4 °C 23.6 °C 21.6 °C 20000 m 0   0 cm 1 min 134.6 W/m² 1025 hPa
12:00 21.6 °C 15.4 °C 68 % 4 km/h (8 km/h) 0 mm0 mm 23.3 °C 23.4 °C 23.6 °C 21.7 °C 20000 m 0   0 cm 4 min 227.1 W/m² 1025 hPa
11:54 21 °C 15.5 °C 71 % 4 km/h (9 km/h) 0 mm0 mm 23.3 °C 23.3 °C 23.6 °C 21.6 °C 20000 m 0   0 cm 4 min 209.8 W/m² 1025.1 hPa
11:48 20.5 °C 15.7 °C 74 % 3 km/h (8 km/h) 0 mm0 mm 23.2 °C 23.3 °C 23.6 °C 21.7 °C 20000 m 0   0 cm 4 min 177.1 W/m² 1025 hPa
11:42 20.1 °C 15.3 °C 74 % 4 km/h (8 km/h) 0 mm0 mm 23.2 °C 23.3 °C 23.6 °C 21.6 °C 20000 m 0   0 cm 0 min 81.1 W/m² 1025 hPa
11:36 20.4 °C 15.4 °C 73 % 3 km/h (6 km/h) 0 mm0 mm 23.1 °C 23.3 °C 23.6 °C 21.7 °C 20000 m 0   0 cm 6 min 246.3 W/m² 1025 hPa
11:30 19.8 °C 15 °C 74 % 3 km/h (7 km/h) 0 mm0 mm 23.1 °C 23.3 °C 23.6 °C 21.7 °C 20000 m 0   0 cm 0 min 118.2 W/m² 1025.1 hPa
11:24 19.7 °C 15.6 °C 77 % 4 km/h (9 km/h) 0 mm0 mm 23.1 °C 23.3 °C 23.6 °C 21.7 °C 20000 m 0   0 cm 2 min 117.2 W/m² 1025 hPa
11:18 19.5 °C 15.8 °C 79 % 5 km/h (10 km/h) 0 mm0 mm 23.1 °C 23.3 °C 23.6 °C 21.6 °C 20000 m 0   0 cm 0 min 81 W/m² 1025.1 hPa
11:12 19.6 °C 15.9 °C 79 % 4 km/h (10 km/h) 0 mm0 mm 23 °C 23.3 °C 23.6 °C 21.7 °C 20000 m 0   0 cm 2 min 137.7 W/m² 1025 hPa
11:06 19.6 °C 15.7 °C 78 % 4 km/h (7 km/h) 0 mm0 mm 23 °C 23.3 °C 23.6 °C 21.7 °C 20000 m 0   0 cm 4 min 153.1 W/m² 1024.9 hPa
11:00 19.3 °C 16 °C 81 % 4 km/h (8 km/h) 0 mm0 mm 23 °C 23.3 °C 23.6 °C 21.7 °C 20000 m 0   0 cm 4 min 158.1 W/m² 1024.8 hPa 8 Octas
10:54 19 °C 15.7 °C 81 % 3 km/h (6 km/h) 0 mm0 mm 23 °C 23.3 °C 23.7 °C 21.7 °C 20000 m 1   0 cm 1 min 131.8 W/m² 1024.8 hPa
10:48 18.8 °C 15.7 °C 82 % 2 km/h (6 km/h) 0 mm0 mm 23 °C 23.3 °C 23.6 °C 21.7 °C 20000 m 1   0 cm 0 min 115.7 W/m² 1024.8 hPa
10:42 18.2 °C 15.1 °C 82 % 2 km/h (4 km/h) 0 mm0 mm 23 °C 23.3 °C 23.6 °C 21.6 °C 20000 m 2   0 cm 0 min 105.6 W/m² 1024.9 hPa
10:36 18.1 °C 15 °C 82 % 2 km/h (5 km/h) 0 mm0 mm 23 °C 23.3 °C 23.6 °C 21.6 °C 20000 m 2   0 cm 0 min 109.4 W/m² 1024.9 hPa
10:30 17.6 °C 15 °C 85 % 2 km/h (5 km/h) 0 mm0 mm 23 °C 23.3 °C 23.6 °C 21.6 °C 20000 m 2   0 cm 0 min 95.1 W/m² 1024.9 hPa
10:24 17.4 °C 15.2 °C 87 % 3 km/h (5 km/h) 0 mm0 mm 23.1 °C 23.4 °C 23.7 °C 21.7 °C 20000 m 2   0 cm 0 min 75.8 W/m² 1024.8 hPa
10:18 17.2 °C 15.4 °C 89 % 4 km/h (7 km/h) 0 mm0 mm 23.1 °C 23.4 °C 23.7 °C 21.7 °C 19750 m 2   0 cm 0 min 60.2 W/m² 1024.8 hPa
10:12 17.2 °C 15.9 °C 92 % 4 km/h (7 km/h) 0 mm0 mm 23.1 °C 23.4 °C 23.7 °C 21.7 °C 15870 m 2   0 cm 0 min 51.4 W/m² 1024.7 hPa
10:06 17.1 °C 15.6 °C 91 % 5 km/h (9 km/h) 0 mm0 mm 23.1 °C 23.4 °C 23.6 °C 21.6 °C 8680 m 2   0 cm 0 min 41.1 W/m² 1024.6 hPa
10:00 17 °C 15.3 °C 90 % 8 km/h (12 km/h) 0 mm0.2 mm 23.1 °C 23.5 °C 23.7 °C 21.6 °C 4880 m 2   0 cm 0 min 37.6 W/m² 1024.6 hPa
09:54 17.1 °C 15.3 °C 89 % 10 km/h (15 km/h) 0.2 mm0 mm 23.1 °C 23.5 °C 23.7 °C 21.6 °C 8290 m 2   0 cm 0 min 25.9 W/m² 1024.6 hPa
09:48 17.2 °C 15.4 °C 89 % 12 km/h (15 km/h) 0 mm0 mm 23.2 °C 23.5 °C 23.6 °C 21.6 °C 20000 m 0   0 cm 0 min 28.5 W/m² 1024.4 hPa
09:42 17.3 °C 15.5 °C 89 % 12 km/h (16 km/h) 0 mm0 mm 23.2 °C 23.5 °C 23.7 °C 21.6 °C 20000 m 0   0 cm 0 min 22.6 W/m² 1024.4 hPa
09:36 17.4 °C 15 °C 86 % 13 km/h (19 km/h) 0 mm0 mm 23.2 °C 23.5 °C 23.6 °C 21.6 °C 18230 m 0   0 cm 0 min 19.8 W/m² 1024.4 hPa
09:30 17.7 °C 15.1 °C 85 % 14 km/h (19 km/h) 0 mm0 mm 23.2 °C 23.6 °C 23.7 °C 21.6 °C 18690 m 0   0 cm 0 min 18.2 W/m² 1024.3 hPa
09:24 17.8 °C 15.1 °C 84 % 15 km/h (20 km/h) 0 mm0 mm 23.2 °C 23.6 °C 23.7 °C 21.6 °C 20000 m 0   0 cm 0 min 15.9 W/m² 1024.2 hPa
09:18 18 °C 14.7 °C 81 % 13 km/h (20 km/h) 0 mm0 mm 23.3 °C 23.6 °C 23.7 °C 21.6 °C 20000 m 0   0 cm 0 min 17.9 W/m² 1024.1 hPa
09:12 18.2 °C 15.1 °C 82 % 9 km/h (16 km/h) 0 mm0 mm 23.3 °C 23.6 °C 23.7 °C 21.6 °C 20000 m 0   0 cm 0 min 17.9 W/m² 1023.9 hPa
09:06 18.3 °C 15 °C 81 % 9 km/h (14 km/h) 0 mm0 mm 23.3 °C 23.6 °C 23.7 °C 21.6 °C 20000 m 0   0 cm 0 min 15.3 W/m² 1023.8 hPa
09:00 18.2 °C 14.9 °C 81 % 9 km/h (14 km/h) 0 mm0 mm 23.3 °C 23.7 °C 23.7 °C 21.6 °C 20000 m 0   0 cm 0 min 11.9 W/m² 1023.8 hPa 8 Octas
08:54 18.2 °C 14.9 °C 81 % 9 km/h (17 km/h) 0 mm0 mm 23.4 °C 23.7 °C 23.7 °C 21.6 °C 20000 m 0   0 cm 0 min 11.1 W/m² 1023.7 hPa
08:48 18.2 °C 14.9 °C 81 % 9 km/h (17 km/h) 0 mm0 mm 23.4 °C 23.7 °C 23.7 °C 21.6 °C 20000 m 0   0 cm 0 min 11 W/m² 1023.7 hPa
08:42 18.2 °C 14.9 °C 81 % 9 km/h (12 km/h) 0 mm0 mm 23.4 °C 23.7 °C 23.7 °C 21.6 °C 20000 m 0   0 cm 0 min 8.3 W/m² 1023.6 hPa
08:36 18.2 °C 14.9 °C 81 % 8 km/h (12 km/h) 0 mm0 mm 23.4 °C 23.8 °C 23.7 °C 21.6 °C 20000 m 0   0 cm 0 min 8.5 W/m² 1023.6 hPa
08:30 18.1 °C 14.8 °C 81 % 8 km/h (13 km/h) 0 mm0 mm 23.5 °C 23.8 °C 23.7 °C 21.6 °C 20000 m 0   0 cm 0 min 3.8 W/m² 1023.5 hPa
08:24 18.1 °C 14.6 °C 80 % 8 km/h (13 km/h) 0 mm0 mm 23.5 °C 23.8 °C 23.7 °C 21.6 °C 20000 m 0 cm 0 min 0 W/m² 1023.4 hPa
08:18 18.1 °C 14.8 °C 81 % 9 km/h (13 km/h) 0 mm0 mm 23.5 °C 23.8 °C 23.7 °C 21.6 °C 20000 m 1   0 cm 0 min 8.8 W/m² 1023.3 hPa
08:12 18.1 °C 14.8 °C 81 % 8 km/h (13 km/h) 0 mm0 mm 23.5 °C 23.8 °C 23.7 °C 21.6 °C 20000 m 1   0 cm 0 min 4.2 W/m² 1023.3 hPa
08:06 18.1 °C 15 °C 82 % 6 km/h (11 km/h) 0 mm0 mm 23.6 °C 23.9 °C 23.7 °C 21.6 °C 20000 m 1   0 cm 0 min 3.7 W/m² 1023.2 hPa
08:00 18.3 °C 15.4 °C 83 % 5 km/h (7 km/h) 0 mm0 mm 23.6 °C 23.9 °C 23.7 °C 21.7 °C 20000 m 2   0 cm 0 min 1.2 W/m² 1023.1 hPa 8 Octas
07:54 18.1 °C 15 °C 82 % 5 km/h (8 km/h) 0 mm0 mm 23.6 °C 23.9 °C 23.7 °C 21.6 °C 20000 m 2   0 cm 0 min 0 W/m² 1023 hPa
07:48 18.1 °C 15.2 °C 83 % 5 km/h (7 km/h) 0 mm0 mm 23.6 °C 24 °C 23.7 °C 21.6 °C 20000 m 2   0 cm 0 min 0 W/m² 1023 hPa
07:42 18.1 °C 15 °C 82 % 5 km/h (7 km/h) 0 mm0 mm 23.6 °C 24 °C 23.7 °C 21.6 °C 20000 m 2   0 cm 0 min 0 W/m² 1022.9 hPa
07:36 18 °C 14.7 °C 81 % 5 km/h (7 km/h) 0 mm0 mm 23.7 °C 24 °C 23.7 °C 21.6 °C 20000 m 2   0 cm 0 min 0 W/m² 1022.8 hPa
07:30 18 °C 14.9 °C 82 % 5 km/h (8 km/h) 0 mm0 mm 23.7 °C 24 °C 23.7 °C 21.6 °C 20000 m 2   0 cm 0 min 0 W/m² 1022.8 hPa
07:24 18.1 °C 15 °C 82 % 5 km/h (8 km/h) 0 mm0 mm 23.7 °C 24 °C 23.7 °C 21.6 °C 20000 m 2   0 cm 0 min 0 W/m² 1022.7 hPa
07:18 18.2 °C 14.9 °C 81 % 5 km/h (7 km/h) 0 mm0 mm 23.8 °C 24 °C 23.7 °C 21.6 °C 20000 m 2   0 cm 0 min 0 W/m² 1022.6 hPa
07:12 18.3 °C 15 °C 81 % 5 km/h (7 km/h) 0 mm0 mm 23.8 °C 24.1 °C 23.7 °C 21.6 °C 17330 m 2   0 cm 0 min 0 W/m² 1022.6 hPa
07:06 18.5 °C 14.8 °C 79 % 5 km/h (7 km/h) 0 mm0 mm 23.8 °C 24.1 °C 23.7 °C 21.6 °C 9790 m 2   0 cm 0 min 0 W/m² 1022.5 hPa
07:00 18.9 °C 14.8 °C 77 % 6 km/h (8 km/h) 0 mm0 mm 23.8 °C 24.1 °C 23.7 °C 21.6 °C 11400 m 2   0 cm 0 min 0 W/m² 1022.5 hPa 7 Octas
06:54 19 °C 14.3 °C 74 % 6 km/h (8 km/h) 0 mm0 mm 23.9 °C 24.1 °C 23.7 °C 21.6 °C 17270 m 1   0 cm 0 min 0 W/m² 1022.5 hPa
06:48 19 °C 13.8 °C 72 % 6 km/h (8 km/h) 0 mm0 mm 23.9 °C 24.2 °C 23.7 °C 21.6 °C 20000 m 0   0 cm 0 min 0 W/m² 1022.3 hPa
06:42 19.1 °C 13.9 °C 72 % 7 km/h (9 km/h) 0 mm0 mm 23.9 °C 24.2 °C 23.7 °C 21.6 °C 20000 m 0   0 cm 0 min 0 W/m² 1022.3 hPa
06:36 19.2 °C 13.8 °C 71 % 7 km/h (9 km/h) 0 mm0 mm 23.9 °C 24.2 °C 23.7 °C 21.6 °C 20000 m 0   0 cm 0 min 0 W/m² 1022.2 hPa
06:30 19.2 °C 13.8 °C 71 % 7 km/h (10 km/h) 0 mm0 mm 23.9 °C 24.2 °C 23.7 °C 21.6 °C 20000 m 0   0 cm 0 min 0 W/m² 1022.1 hPa
06:24 19.2 °C 13.8 °C 71 % 6 km/h (10 km/h) 0 mm0 mm 23.9 °C 24.2 °C 23.8 °C 21.7 °C 20000 m 0   0 cm 0 min 0 W/m² 1022.1 hPa
06:18 19.2 °C 13.8 °C 71 % 6 km/h (10 km/h) 0 mm0 mm 24 °C 24.3 °C 23.7 °C 21.6 °C 20000 m 0   0 cm 0 min 0 W/m² 1022 hPa
06:12 19.3 °C 14.1 °C 72 % 6 km/h (10 km/h) 0 mm0 mm 24 °C 24.3 °C 23.7 °C 21.6 °C 20000 m 0   0 cm 0 min 0 W/m² 1022.1 hPa
06:06 19.3 °C 13.9 °C 71 % 8 km/h (11 km/h) 0 mm0 mm 24 °C 24.3 °C 23.7 °C 21.6 °C 20000 m 0   0 cm 0 min 0 W/m² 1022.1 hPa
06:00 19.4 °C 14.2 °C 72 % 8 km/h (14 km/h) 0 mm0 mm 24 °C 24.3 °C 23.7 °C 21.6 °C 20000 m 0   0 cm 0 min 0 W/m² 1022 hPa 8 Octas
05:54 19.4 °C 14.4 °C 73 % 8 km/h (12 km/h) 0 mm0 mm 24.1 °C 24.4 °C 23.8 °C 21.6 °C 20000 m 0   0 cm 0 min 0 W/m² 1021.9 hPa
05:48 19.4 °C 14.9 °C 75 % 6 km/h (10 km/h) 0 mm0 mm 24.1 °C 24.4 °C 23.7 °C 21.6 °C 20000 m 0   0 cm 0 min 0 W/m² 1021.9 hPa
05:42 19.5 °C 14.7 °C 74 % 5 km/h (9 km/h) 0 mm0 mm 24.1 °C 24.4 °C 23.7 °C 21.6 °C 20000 m 0   0 cm 0 min 0 W/m² 1021.9 hPa
05:36 19.5 °C 14.7 °C 74 % 4 km/h (7 km/h) 0 mm0 mm 24.2 °C 24.4 °C 23.8 °C 21.6 °C 20000 m 0   0 cm 0 min 0 W/m² 1021.8 hPa
05:30 19.5 °C 14.9 °C 75 % 5 km/h (8 km/h) 0 mm0 mm 24.1 °C 24.4 °C 23.7 °C 21.6 °C 20000 m 0   0 cm 0 min 0 W/m² 1021.7 hPa
05:24 19.5 °C 14.9 °C 75 % 6 km/h (10 km/h) 0 mm0 mm 24.2 °C 24.5 °C 23.7 °C 21.6 °C 20000 m 0   0 cm 0 min 0 W/m² 1021.7 hPa
05:18 19.6 °C 15.9 °C 79 % 5 km/h (9 km/h) 0 mm0 mm 24.2 °C 24.5 °C 23.7 °C 21.6 °C 20000 m 0   0 cm 0 min 0 W/m² 1021.7 hPa
05:12 19.6 °C 16.1 °C 80 % 4 km/h (5 km/h) 0 mm0 mm 24.3 °C 24.5 °C 23.7 °C 21.6 °C 20000 m 0   0 cm 0 min 0 W/m² 1021.7 hPa
05:06 19.6 °C 15.9 °C 79 % 4 km/h (6 km/h) 0 mm0 mm 24.2 °C 24.6 °C 23.7 °C 21.6 °C 20000 m 0   0 cm 0 min 0 W/m² 1021.6 hPa
05:00 19.7 °C 16 °C 79 % 4 km/h (6 km/h) 0 mm0 mm 24.3 °C 24.5 °C 23.7 °C 21.6 °C 20000 m 0   0 cm 0 min 0 W/m² 1021.5 hPa 7 Octas
04:54 19.7 °C 16.2 °C 80 % 2 km/h (5 km/h) 0 mm0 mm 24.3 °C 24.6 °C 23.7 °C 21.6 °C 20000 m 0   0 cm 0 min 0 W/m² 1021.4 hPa
04:48 19.7 °C 16.3 °C 81 % 3 km/h (6 km/h) 0 mm0 mm 24.3 °C 24.6 °C 23.7 °C 21.6 °C 20000 m 0   0 cm 0 min 0 W/m² 1021.3 hPa
04:42 19.7 °C 16.3 °C 81 % 4 km/h (6 km/h) 0 mm0 mm 24.4 °C 24.6 °C 23.7 °C 21.6 °C 20000 m 0   0 cm 0 min 0 W/m² 1021.3 hPa
04:36 19.8 °C 16.4 °C 81 % 4 km/h (6 km/h) 0 mm0 mm 24.4 °C 24.6 °C 23.7 °C 21.6 °C 20000 m 0   0 cm 0 min 0 W/m² 1021.3 hPa
04:30 19.9 °C 16.5 °C 81 % 5 km/h (8 km/h) 0 mm0 mm 24.4 °C 24.7 °C 23.7 °C 21.6 °C 20000 m 0   0 cm 0 min 0 W/m² 1021.3 hPa
04:24 19.8 °C 16.4 °C 81 % 5 km/h (8 km/h) 0 mm0 mm 24.4 °C 24.7 °C 23.7 °C 21.6 °C 20000 m 0   0 cm 0 min 0 W/m² 1021.3 hPa
04:18 19.9 °C 16.5 °C 81 % 5 km/h (8 km/h) 0 mm0 mm 24.4 °C 24.7 °C 23.7 °C 21.6 °C 20000 m 0   0 cm 0 min 0 W/m² 1021.2 hPa
04:12 20 °C 16.4 °C 80 % 4 km/h (6 km/h) 0 mm0 mm 24.5 °C 24.8 °C 23.7 °C 21.6 °C 20000 m 0   0 cm 0 min 0 W/m² 1021.1 hPa
04:06 20 °C 16.4 °C 80 % 4 km/h (5 km/h) 0 mm0 mm 24.5 °C 24.8 °C 23.7 °C 21.6 °C 20000 m 0   0 cm 0 min 0 W/m² 1021.1 hPa
04:00 20.2 °C 16.6 °C 80 % 4 km/h (8 km/h) 0 mm0 mm 24.6 °C 24.8 °C 23.7 °C 21.6 °C 20000 m 0   0 cm 0 min 0 W/m² 1021.1 hPa 7 Octas
03:54 20.4 °C 16.6 °C 79 % 5 km/h (8 km/h) 0 mm0 mm 24.6 °C 24.8 °C 23.7 °C 21.6 °C 20000 m 0   0 cm 0 min 0 W/m² 1020.9 hPa
03:48 20.4 °C 16.6 °C 79 % 6 km/h (9 km/h) 0 mm0 mm 24.6 °C 24.9 °C 23.7 °C 21.6 °C 20000 m 0   0 cm 0 min 0 W/m² 1020.9 hPa
03:42 20.4 °C 16.4 °C 78 % 6 km/h (9 km/h) 0 mm0 mm 24.6 °C 24.9 °C 23.7 °C 21.6 °C 20000 m 0   0 cm 0 min 0 W/m² 1020.8 hPa
03:36 20.5 °C 16.5 °C 78 % 5 km/h (9 km/h) 0 mm0 mm 24.6 °C 24.9 °C 23.6 °C 21.6 °C 20000 m 0   0 cm 0 min 0 W/m² 1020.7 hPa
03:30 20.5 °C 16.5 °C 78 % 7 km/h (10 km/h) 0 mm0 mm 24.7 °C 24.9 °C 23.7 °C 21.6 °C 20000 m 0   0 cm 0 min 0 W/m² 1020.8 hPa
03:24 20.5 °C 16.5 °C 78 % 8 km/h (12 km/h) 0 mm0 mm 24.7 °C 25 °C 23.7 °C 21.6 °C 20000 m 0   0 cm 0 min 0 W/m² 1020.8 hPa
03:18 20.5 °C 16.5 °C 78 % 7 km/h (12 km/h) 0 mm0 mm 24.7 °C 25 °C 23.6 °C 21.6 °C 20000 m 0   0 cm 0 min 0 W/m² 1020.6 hPa
03:12 20.6 °C 16.4 °C 77 % 8 km/h (13 km/h) 0 mm0 mm 24.8 °C 25 °C 23.6 °C 21.6 °C 20000 m 0   0 cm 0 min 0 W/m² 1020.7 hPa
03:06 20.5 °C 16.5 °C 78 % 8 km/h (15 km/h) 0 mm0 mm 24.8 °C 25 °C 23.6 °C 21.6 °C 20000 m 0   0 cm 0 min 0 W/m² 1020.8 hPa
03:00 20.2 °C 16 °C 77 % 5 km/h (10 km/h) 0 mm0 mm 24.8 °C 25.1 °C 23.7 °C 21.6 °C 20000 m 0   0 cm 0 min 0 W/m² 1020.8 hPa 7 Octas
02:54 20.2 °C 16 °C 77 % 4 km/h (7 km/h) 0 mm0 mm 24.9 °C 25.1 °C 23.6 °C 21.6 °C 20000 m 0   0 cm 0 min 0 W/m² 1020.8 hPa
02:48 20.4 °C 16 °C 76 % 4 km/h (6 km/h) 0 mm0 mm 24.9 °C 25.1 °C 23.6 °C 21.6 °C 20000 m 0   0 cm 0 min 0 W/m² 1020.6 hPa
02:42 20.4 °C 15.8 °C 75 % 4 km/h (8 km/h) 0 mm0 mm 24.9 °C 25.2 °C 23.6 °C 21.6 °C 20000 m 0   0 cm 0 min 0 W/m² 1020.8 hPa
02:36 20.4 °C 15.8 °C 75 % 6 km/h (11 km/h) 0 mm0 mm 25 °C 25.2 °C 23.6 °C 21.6 °C 20000 m 0   0 cm 0 min 0 W/m² 1020.5 hPa
02:30 20.5 °C 15.7 °C 74 % 8 km/h (10 km/h) 0 mm0 mm 25 °C 25.2 °C 23.6 °C 21.6 °C 20000 m 0   0 cm 0 min 0 W/m² 1020.5 hPa
02:24 20.6 °C 15.6 °C 73 % 6 km/h (9 km/h) 0 mm0 mm 25 °C 25.2 °C 23.6 °C 21.6 °C 20000 m 0   0 cm 0 min 0 W/m² 1020.3 hPa
02:18 20.5 °C 15.5 °C 73 % 5 km/h (7 km/h) 0 mm0 mm 25.1 °C 25.3 °C 23.6 °C 21.6 °C 20000 m 0   0 cm 0 min 0 W/m² 1020.3 hPa
02:12 20.7 °C 15.5 °C 72 % 5 km/h (6 km/h) 0 mm0 mm 25.1 °C 25.3 °C 23.6 °C 21.6 °C 20000 m 0   0 cm 0 min 0 W/m² 1020.4 hPa
02:06 20.7 °C 15.5 °C 72 % 5 km/h (8 km/h) 0 mm0 mm 25.1 °C 25.3 °C 23.6 °C 21.6 °C 20000 m 0   0 cm 0 min 0 W/m² 1020.1 hPa
02:00 20.8 °C 15.6 °C 72 % 6 km/h (9 km/h) 0 mm0 mm 25.2 °C 25.4 °C 23.5 °C 21.6 °C 20000 m 0   0 cm 0 min 0 W/m² 1020.2 hPa
01:54 20.8 °C 15.6 °C 72 % 5 km/h (9 km/h) 0 mm0 mm 25.2 °C 25.5 °C 23.6 °C 21.6 °C 20000 m 0   0 cm 0 min 0 W/m² 1020.1 hPa
01:48 20.6 °C 15.6 °C 73 % 4 km/h (7 km/h) 0 mm0 mm 25.2 °C 25.5 °C 23.6 °C 21.6 °C 20000 m 0   0 cm 0 min 0 W/m² 1020.3 hPa
01:42 20.8 °C 15.6 °C 72 % 4 km/h (7 km/h) 0 mm0 mm 25.3 °C 25.5 °C 23.6 °C 21.6 °C 20000 m 0   0 cm 0 min 0 W/m² 1020.3 hPa
01:36 20.8 °C 15.6 °C 72 % 4 km/h (7 km/h) 0 mm0 mm 25.3 °C 25.5 °C 23.5 °C 21.6 °C 20000 m 0   0 cm 0 min 0 W/m² 1020.3 hPa
01:30 20.8 °C 15.6 °C 72 % 3 km/h (7 km/h) 0 mm0 mm 25.4 °C 25.6 °C 23.5 °C 21.6 °C 20000 m 0   0 cm 0 min 0 W/m² 1020.3 hPa
01:24 20.9 °C 15.4 °C 71 % 2 km/h (4 km/h) 0 mm0 mm 25.4 °C 25.6 °C 23.5 °C 21.6 °C 20000 m 0   0 cm 0 min 0 W/m² 1020.1 hPa
01:18 21.1 °C 15.4 °C 70 % 3 km/h (6 km/h) 0 mm0 mm 25.4 °C 25.6 °C 23.5 °C 21.6 °C 20000 m 0   0 cm 0 min 0 W/m² 1020.1 hPa
01:12 21.2 °C 15.5 °C 70 % 4 km/h (8 km/h) 0 mm0 mm 25.5 °C 25.6 °C 23.5 °C 21.6 °C 20000 m 0   0 cm 0 min 0 W/m² 1020.1 hPa
01:06 21.2 °C 15.5 °C 70 % 5 km/h (9 km/h) 0 mm0 mm 25.5 °C 25.7 °C 23.5 °C 21.6 °C 20000 m 0   0 cm 0 min 0 W/m² 1020.1 hPa
01:00 21.2 °C 15.7 °C 71 % 5 km/h (9 km/h) 0 mm0 mm 25.5 °C 25.7 °C 23.5 °C 21.6 °C 20000 m 0   0 cm 0 min 0 W/m² 1020.1 hPa 7 Octas
00:54 21.2 °C 15.7 °C 71 % 5 km/h (8 km/h) 0 mm0 mm 25.6 °C 25.8 °C 23.5 °C 21.6 °C 20000 m 0   0 cm 0 min 0 W/m² 1020.1 hPa
00:48 21.2 °C 15.7 °C 71 % 5 km/h (8 km/h) 0 mm0 mm 25.6 °C 25.8 °C 23.5 °C 21.6 °C 20000 m 0   0 cm 0 min 0 W/m² 1020 hPa
00:42 21.2 °C 15.7 °C 71 % 6 km/h (9 km/h) 0 mm0 mm 25.7 °C 25.8 °C 23.5 °C 21.6 °C 20000 m 0   0 cm 0 min 0 W/m² 1019.9 hPa
00:36 21.2 °C 15.7 °C 71 % 6 km/h (8 km/h) 0 mm0 mm 25.7 °C 25.9 °C 23.5 °C 21.6 °C 20000 m 0   0 cm 0 min 0 W/m² 1020.1 hPa
00:30 21.1 °C 15.9 °C 72 % 6 km/h (9 km/h) 0 mm0 mm 25.8 °C 25.9 °C 23.4 °C 21.6 °C 20000 m 0   0 cm 0 min 0 W/m² 1020 hPa
00:24 21 °C 15.8 °C 72 % 6 km/h (9 km/h) 0 mm0 mm 25.8 °C 25.9 °C 23.4 °C 21.6 °C 20000 m 0   0 cm 0 min 0 W/m² 1020 hPa
00:18 20.8 °C 15.8 °C 73 % 5 km/h (8 km/h) 0 mm0 mm 25.8 °C 26 °C 23.4 °C 21.6 °C 20000 m 0   0 cm 0 min 0 W/m² 1020 hPa
00:12 20.8 °C 15.6 °C 72 % 5 km/h (6 km/h) 0 mm0 mm 25.9 °C 26 °C 23.4 °C 21.6 °C 20000 m 0   0 cm 0 min 0 W/m² 1020 hPa
00:06 21 °C 15.8 °C 72 % 4 km/h (6 km/h) 0 mm0 mm 26 °C 26.1 °C 23.4 °C 21.6 °C 20000 m 0   0 cm 0 min 0 W/m² 1019.8 hPa
00:00 21.2 °C 15.7 °C 71 % 4 km/h (8 km/h) 0 mm0 mm 26 °C 26.1 °C 23.4 °C 21.6 °C 20000 m 0   0 cm 0 min 0 W/m² 1019.8 hPa

Données via Météo-France

Relevés météo à Auxerre-Perrigny

Cette page rassemble les observations de la station de Auxerre-Perrigny : température, humidité, vent, précipitations et pression atmosphérique. Les graphiques facilitent le suivi de la journée, tandis que le tableau donne accès aux mesures horaires et infra-horaires disponibles.

Pour replacer ces mesures dans leur contexte, consultez la climatologie de Auxerre-Perrigny. Retrouvez aussi la carte des observations météo en temps réel.